Погода Столипинона неделю

Тверская область, Россия

22 - 28 мая
  • 22мая
    Сегодня
    +7°
    +22°
    Ясно и безоблачно
    ВремяПогодаТемператураВлажностьДавлениеВетер, м/сВероятность осадков
    00:00Ясно и безоблачно+11°C62 %749 мм2.3 м/с2 %
    03:00Ясно и безоблачно+9°C63 %750 мм3.1 м/с2 %
    06:00Ясно и безоблачно+10°C62 %751 мм3.4 м/с2 %
    09:00Ясно и безоблачно+17°C51 %751 мм3.4 м/с2 %
    12:00Ясно и безоблачно+21°C37 %752 мм4.2 м/с2 %
    15:00Ясно и безоблачно+22°C34 %751 мм3.8 м/с2 %
    18:00Ясно и безоблачно+21°C35 %751 мм3.6 м/с2 %
    21:00Ясно и безоблачно+15°C55 %752 мм2.8 м/с2 %
  • 23мая
    Четверг
    +6°
    +20°
    Ясно и безоблачно
    ВремяПогодаТемператураВлажностьДавлениеВетер, м/сВероятность осадков
    00:00Ясно и безоблачно+11°C55 %753 мм4.3 м/с2 %
    03:00Ясно и безоблачно+9°C61 %754 мм3.0 м/с2 %
    06:00Ясно и безоблачно+9°C63 %755 мм3.1 м/с2 %
    09:00Ясно и безоблачно+15°C46 %756 мм3.2 м/с2 %
    12:00Ясно и безоблачно+19°C34 %756 мм4.4 м/с2 %
    15:00Ясно и безоблачно+19°C35 %756 мм4.0 м/с2 %
    18:00Ясно и безоблачно+20°C37 %756 мм2.3 м/с2 %
    21:00Ясно и безоблачно+15°C50 %756 мм3.2 м/с2 %
  • 24мая
    Пятница
    +6°
    +21°
    Ясно и безоблачно
    ВремяПогодаТемператураВлажностьДавлениеВетер, м/сВероятность осадков
    00:00Ясно и безоблачно+10°C60 %757 мм2.9 м/с2 %
    03:00Облачно с прояснениями+7°C68 %758 мм2.2 м/с2 %
    06:00Ясно и безоблачно+8°C71 %759 мм2.0 м/с2 %
    09:00Ясно и безоблачно+15°C44 %759 мм2.2 м/с2 %
    12:00Ясно и безоблачно+19°C36 %759 мм2.9 м/с2 %
    15:00Ясно и безоблачно+20°C34 %758 мм3.0 м/с2 %
    18:00Ясно и безоблачно+21°C37 %758 мм2.8 м/с2 %
    21:00Ясно и безоблачно+15°C56 %757 мм2.5 м/с2 %
  • 25мая
    Суббота
    +8°
    +24°
    Практически безоблачно
    ВремяПогодаТемператураВлажностьДавлениеВетер, м/сВероятность осадков
    00:00Ясно и безоблачно+10°C64 %757 мм2.9 м/с2 %
    03:00Ясно и безоблачно+7°C76 %757 мм2.2 м/с2 %
    06:00Ясно и безоблачно+9°C77 %757 мм2.6 м/с2 %
    09:00Ясно и безоблачно+16°C55 %757 мм2.5 м/с2 %
    12:00Ясно и безоблачно+20°C40 %756 мм3.0 м/с2 %
    15:00Практически безоблачно+22°C38 %755 мм3.1 м/с2 %
    18:00Ясно и безоблачно+23°C39 %753 мм2.6 м/с2 %
    21:00Ясно и безоблачно+16°C68 %753 мм2.1 м/с2 %
  • 26мая
    Воскресенье
    +8°
    +25°
    Пасмурно, дожди с грозами
    ВремяПогодаТемператураВлажностьДавлениеВетер, м/сВероятность осадков
    00:00Ясно и безоблачно+12°C77 %752 мм2.2 м/с2 %
    03:00Ясно и безоблачно+10°C86 %752 мм1.9 м/с2 %
    06:00Ясно и безоблачно+11°C81 %752 мм2.2 м/с2 %
    09:00Облачно с прояснениями+19°C60 %752 мм2.0 м/с4 %
    12:00Облачно с прояснениями+24°C47 %753 мм3.9 м/с21 %
    15:00Пасмурно, дожди с грозами+21°C73 %753 мм3.9 м/с45 %
    18:00Облачно с прояснениями, небольшой дождь+21°C76 %752 мм2.5 м/с50 %
    21:00Практически безоблачно+18°C89 %752 мм2.3 м/с27 %
Мы используем cookies
Соглашаюсь